Time;durP1;ratioP1;P1;durP2;ratioP2;P2;SDS_P1;SDS_P2;PMS_P1;PMS_P2;Temp;Humidity;BMP_temperature;BMP_pressure;BME280_temperature;BME280_humidity;BME280_pressure;Samples;Min_cycle;Max_cycle;Signal;HPM_P1;HPM_P2
2024/03/09 00:03:54;;;;;;;36.50;26.20;;;7.50;78.50;;;;;;10384881;28;20227;-59
2024/03/09 00:08:59;;;;;;;36.63;26.80;;;7.50;78.60;;;;;;10385843;28;20249;-60
2024/03/09 00:14:04;;;;;;;33.63;25.77;;;7.50;78.70;;;;;;10386698;28;20272;-60
2024/03/09 00:19:08;;;;;;;37.10;26.80;;;7.40;78.60;;;;;;10386898;28;21408;-60
2024/03/09 00:24:12;;;;;;;39.20;27.97;;;7.40;78.80;;;;;;10385218;28;20636;-59
2024/03/09 00:29:17;;;;;;;37.23;27.30;;;7.40;78.80;;;;;;10386611;28;20231;-60
2024/03/09 00:34:20;;;;;;;38.20;27.30;;;7.40;78.90;;;;;;10386286;28;20749;-61
2024/03/09 00:39:25;;;;;;;35.40;27.03;;;7.30;78.80;;;;;;10384733;28;20255;-60
2024/03/09 00:44:33;;;;;;;38.30;27.93;;;7.30;78.80;;;;;;10382707;28;20232;-61
2024/03/09 00:49:37;;;;;;;39.10;27.93;;;7.30;78.90;;;;;;10379786;28;21554;-61
2024/03/09 00:54:42;;;;;;;39.67;28.23;;;7.30;79.00;;;;;;10382748;28;20207;-61
2024/03/09 00:59:47;;;;;;;37.90;27.43;;;7.20;78.90;;;;;;10381386;28;20231;-61
2024/03/09 01:04:50;;;;;;;35.83;26.47;;;7.20;79.10;;;;;;10378868;28;21023;-61
2024/03/09 01:09:54;;;;;;;37.70;27.10;;;7.20;79.10;;;;;;10381502;28;20224;-62
2024/03/09 01:14:59;;;;;;;37.57;26.57;;;7.10;79.10;;;;;;10380111;28;20196;-61
2024/03/09 01:20:05;;;;;;;36.87;26.90;;;7.10;79.20;;;;;;10380611;28;20597;-62
2024/03/09 01:25:11;;;;;;;37.13;26.40;;;7.10;79.10;;;;;;10387982;28;20280;-60
2024/03/09 01:30:16;;;;;;;35.83;26.97;;;7.10;79.20;;;;;;10385878;28;20227;-60
2024/03/09 01:35:23;;;;;;;38.40;27.80;;;7.00;79.10;;;;;;10386767;28;20248;-59
2024/03/09 01:40:27;;;;;;;38.60;27.73;;;7.00;79.20;;;;;;10388267;28;20249;-60
2024/03/09 01:45:32;;;;;;;38.57;27.73;;;6.90;79.20;;;;;;10384883;28;20224;-59
2024/03/09 01:50:37;;;;;;;37.97;27.07;;;6.90;79.20;;;;;;10386764;28;20227;-60
2024/03/09 01:55:43;;;;;;;37.40;26.67;;;6.90;79.30;;;;;;10386054;28;20212;-60
2024/03/09 02:00:55;;;;;;;35.70;26.03;;;6.90;79.30;;;;;;10382312;28;20789;-60
2024/03/09 02:05:59;;;;;;;35.87;26.07;;;6.80;79.20;;;;;;10387296;28;20242;-60
2024/03/09 02:11:03;;;;;;;39.00;26.53;;;6.80;79.20;;;;;;10387507;28;20253;-60
2024/03/09 02:16:08;;;;;;;39.90;26.63;;;6.70;79.30;;;;;;10385603;28;20334;-61
2024/03/09 02:21:12;;;;;;;40.17;27.60;;;6.70;79.20;;;;;;10388793;28;20244;-61
2024/03/09 02:26:18;;;;;;;39.73;25.63;;;6.70;79.30;;;;;;10387702;28;20468;-60
2024/03/09 02:31:22;;;;;;;37.80;26.27;;;6.70;79.50;;;;;;10385006;28;20227;-61
2024/03/09 02:36:27;;;;;;;39.93;26.80;;;6.60;79.40;;;;;;10383679;28;20254;-60
2024/03/09 02:41:32;;;;;;;40.67;27.53;;;6.60;79.60;;;;;;10382666;28;20246;-60
2024/03/09 02:46:36;;;;;;;36.37;27.03;;;6.60;79.50;;;;;;10390147;28;20283;-61
2024/03/09 02:51:40;;;;;;;37.97;26.70;;;6.50;79.50;;;;;;10389255;28;20979;-60
2024/03/09 02:56:46;;;;;;;37.23;27.07;;;6.50;79.60;;;;;;10389136;28;20207;-60
2024/03/09 03:01:50;;;;;;;36.53;26.23;;;6.50;79.60;;;;;;10389661;28;20453;-60
2024/03/09 03:06:53;;;;;;;38.57;26.70;;;6.40;79.40;;;;;;10389903;28;20248;-60
2024/03/09 03:12:01;;;;;;;36.30;25.97;;;6.40;79.60;;;;;;10390314;28;20227;-61
2024/03/09 03:17:06;;;;;;;36.77;26.57;;;6.40;79.60;;;;;;10393313;28;20214;-60
2024/03/09 03:22:10;;;;;;;38.43;26.53;;;6.40;79.70;;;;;;10392341;28;20280;-60
2024/03/09 03:27:19;;;;;;;36.17;25.93;;;6.30;79.70;;;;;;10390691;28;20462;-59
2024/03/09 03:32:22;;;;;;;36.37;25.90;;;6.30;79.70;;;;;;10390829;28;20273;-59
2024/03/09 03:37:26;;;;;;;38.43;26.30;;;6.30;79.70;;;;;;10390396;28;20279;-59
2024/03/09 03:42:31;;;;;;;37.17;26.37;;;6.30;79.80;;;;;;10392487;28;20278;-60
2024/03/09 03:47:34;;;;;;;34.87;25.20;;;6.30;80.00;;;;;;10390858;28;20675;-60
2024/03/09 03:52:39;;;;;;;34.50;25.30;;;6.20;79.80;;;;;;10387551;28;20232;-60
2024/03/09 03:57:44;;;;;;;35.37;25.23;;;6.20;79.80;;;;;;10388782;28;20212;-60
2024/03/09 04:02:50;;;;;;;33.30;24.47;;;6.20;80.00;;;;;;10391155;28;21132;-60
2024/03/09 04:07:54;;;;;;;33.80;24.03;;;6.20;79.90;;;;;;10389514;28;20215;-60
2024/03/09 04:12:59;;;;;;;34.13;25.13;;;6.20;79.90;;;;;;10389607;28;20207;-60
2024/03/09 04:18:02;;;;;;;35.97;25.23;;;6.20;79.90;;;;;;10386950;28;20223;-60
2024/03/09 04:23:07;;;;;;;35.53;25.57;;;6.20;79.90;;;;;;10390387;28;20223;-59
2024/03/09 04:28:16;;;;;;;33.70;24.03;;;6.20;80.00;;;;;;10392295;28;20486;-60
2024/03/09 04:33:21;;;;;;;34.07;25.13;;;6.20;80.00;;;;;;10389085;28;20203;-60
2024/03/09 04:38:25;;;;;;;36.13;25.23;;;6.20;80.10;;;;;;10389784;28;20869;-60
2024/03/09 04:43:32;;;;;;;36.77;25.23;;;6.20;80.10;;;;;;10390464;28;20242;-61
2024/03/09 04:48:35;;;;;;;34.80;23.90;;;6.20;80.10;;;;;;10388837;28;20773;-59
2024/03/09 04:53:39;;;;;;;32.77;24.30;;;6.20;80.20;;;;;;10390517;28;21482;-64
2024/03/09 04:58:44;;;;;;;33.90;23.60;;;6.20;80.10;;;;;;10387116;28;20583;-61
2024/03/09 05:03:48;;;;;;;35.03;24.80;;;6.10;80.00;;;;;;10386547;28;20763;-60
2024/03/09 05:08:51;;;;;;;32.83;23.50;;;6.10;80.20;;;;;;10385321;28;20227;-60
2024/03/09 05:13:56;;;;;;;32.73;23.17;;;6.10;81.00;;;;;;10379241;28;20928;-60
2024/03/09 05:19:00;;;;;;;31.47;22.77;;;6.00;80.20;;;;;;10379258;28;20288;-60
2024/03/09 05:24:04;;;;;;;33.53;23.67;;;6.00;80.30;;;;;;10382847;28;20726;-60
2024/03/09 05:29:11;;;;;;;34.83;24.67;;;6.00;80.40;;;;;;10386877;28;20969;-61
2024/03/09 05:34:15;;;;;;;33.10;23.37;;;6.00;80.30;;;;;;10386890;28;20207;-60
2024/03/09 05:39:19;;;;;;;32.37;23.17;;;6.00;80.20;;;;;;10385092;28;21318;-60
2024/03/09 05:44:24;;;;;;;31.43;23.50;;;5.90;80.30;;;;;;10399926;28;20245;-60
2024/03/09 05:49:28;;;;;;;34.10;24.07;;;5.90;80.40;;;;;;10395539;28;20232;-59
2024/03/09 05:54:33;;;;;;;31.37;23.33;;;5.90;80.30;;;;;;10379805;28;20206;-61
2024/03/09 05:59:38;;;;;;;31.27;22.80;;;5.90;80.40;;;;;;10385304;28;20227;-60
2024/03/09 06:04:42;;;;;;;30.60;22.03;;;5.90;80.30;;;;;;10390439;28;21517;-60
2024/03/09 06:09:46;;;;;;;35.37;24.33;;;5.90;80.40;;;;;;10382357;28;20290;-58
2024/03/09 06:14:51;;;;;;;33.30;23.60;;;5.90;80.60;;;;;;10386779;28;20887;-61
2024/03/09 06:19:55;;;;;;;33.90;23.53;;;5.90;80.50;;;;;;10386345;28;21374;-60
2024/03/09 06:24:58;;;;;;;32.10;22.10;;;5.90;80.50;;;;;;10384323;28;20799;-60
2024/03/09 06:30:06;;;;;;;34.50;23.20;;;5.90;81.40;;;;;;10388270;28;20239;-58
2024/03/09 06:35:10;;;;;;;31.07;23.60;;;5.90;80.60;;;;;;10384885;28;20203;-60
2024/03/09 06:40:13;;;;;;;33.20;22.73;;;5.90;80.40;;;;;;10389737;28;20277;-60
2024/03/09 06:45:18;;;;;;;32.87;23.03;;;5.90;80.50;;;;;;10387692;28;20222;-60
2024/03/09 06:50:22;;;;;;;34.13;29.67;;;6.00;80.70;;;;;;10380066;28;20992;-61
2024/03/09 06:55:26;;;;;;;32.67;24.57;;;6.20;81.10;;;;;;10379827;28;20208;-61
2024/03/09 07:00:34;;;;;;;31.47;22.37;;;6.30;80.70;;;;;;10385089;28;20242;-64
2024/03/09 07:05:39;;;;;;;33.83;22.97;;;6.30;80.70;;;;;;10399942;28;20240;-64
2024/03/09 07:10:47;;;;;;;29.63;22.17;;;6.30;80.60;;;;;;10394964;28;20277;-63
2024/03/09 07:15:52;;;;;;;30.37;22.07;;;6.30;80.70;;;;;;10400725;28;20201;-65
2024/03/09 07:20:56;;;;;;;31.37;22.93;;;6.40;80.70;;;;;;10396795;28;20216;-67
2024/03/09 07:26:00;;;;;;;30.03;21.57;;;6.40;80.50;;;;;;10378472;28;20261;-66
2024/03/09 07:31:06;;;;;;;30.07;21.87;;;6.40;80.50;;;;;;10381490;28;20230;-66
2024/03/09 07:36:10;;;;;;;29.00;21.23;;;6.50;80.50;;;;;;10380400;28;20225;-65
2024/03/09 07:41:16;;;;;;;30.33;22.97;;;6.60;80.80;;;;;;10382116;28;20797;-66
2024/03/09 07:46:21;;;;;;;29.33;21.40;;;6.70;80.60;;;;;;10384082;28;20230;-66
2024/03/09 07:51:24;;;;;;;29.90;21.60;;;6.80;80.50;;;;;;10385127;28;20691;-66
2024/03/09 07:56:28;;;;;;;32.17;22.97;;;6.90;80.50;;;;;;10385031;28;20864;-66
2024/03/09 08:01:38;;;;;;;26.67;21.43;;;7.00;80.50;;;;;;10385584;28;20359;-66
2024/03/09 08:06:43;;;;;;;30.67;21.93;;;7.10;80.50;;;;;;10385816;28;20753;-66
2024/03/09 08:11:49;;;;;;;30.83;22.57;;;7.20;80.60;;;;;;10385713;28;20231;-66
2024/03/09 08:16:55;;;;;;;31.03;22.27;;;7.20;80.50;;;;;;10383657;28;20296;-65
2024/03/09 08:21:59;;;;;;;28.77;21.00;;;7.30;80.50;;;;;;10378570;28;20318;-65
2024/03/09 08:27:03;;;;;;;30.33;22.53;;;7.40;80.60;;;;;;10379162;28;20234;-66
2024/03/09 08:32:09;;;;;;;28.30;21.10;;;7.50;80.70;;;;;;10382784;28;20978;-65
2024/03/09 08:37:13;;;;;;;27.67;21.33;;;7.60;80.70;;;;;;10385417;28;20255;-65
2024/03/09 08:42:16;;;;;;;31.13;21.67;;;7.70;80.60;;;;;;10384501;28;20227;-65
2024/03/09 08:47:21;;;;;;;27.80;21.47;;;7.80;80.60;;;;;;10384923;28;20229;-65
2024/03/09 08:52:25;;;;;;;28.33;21.13;;;7.90;80.70;;;;;;10358421;28;21262;-66
2024/03/09 08:57:29;;;;;;;26.70;20.70;;;8.00;80.70;;;;;;10377532;28;20207;-66
2024/03/09 09:02:36;;;;;;;26.97;21.17;;;8.00;80.60;;;;;;10383264;28;20225;-67
2024/03/09 09:07:41;;;;;;;24.87;20.57;;;8.20;80.80;;;;;;10376045;28;20227;-65
2024/03/09 09:12:46;;;;;;;26.10;20.07;;;8.30;80.80;;;;;;10382331;28;20261;-66
2024/03/09 09:17:51;;;;;;;25.90;19.60;;;8.50;80.90;;;;;;10382653;28;20213;-65
2024/03/09 09:22:55;;;;;;;24.10;19.30;;;8.60;80.90;;;;;;10375596;28;20212;-66
2024/03/09 09:27:59;;;;;;;27.00;19.20;;;8.70;80.90;;;;;;10378013;28;20227;-66
2024/03/09 09:33:06;;;;;;;24.60;18.60;;;8.80;80.80;;;;;;10375046;28;20208;-66
2024/03/09 09:38:10;;;;;;;23.47;18.17;;;8.90;80.90;;;;;;10381241;28;20229;-66
2024/03/09 09:43:15;;;;;;;21.63;16.37;;;9.00;80.90;;;;;;10381463;28;20272;-66
2024/03/09 09:48:20;;;;;;;21.20;17.75;;;9.10;80.90;;;;;;10378156;28;20774;-66
2024/03/09 09:53:25;;;;;;;23.13;18.00;;;9.30;80.90;;;;;;10379794;28;22367;-67
2024/03/09 09:58:29;;;;;;;21.48;16.80;;;9.40;81.00;;;;;;10377376;28;20223;-66
2024/03/09 10:03:34;;;;;;;18.38;14.80;;;9.50;81.00;;;;;;10379763;28;20207;-66
2024/03/09 10:08:48;;;;;;;19.25;15.52;;;9.60;80.80;;;;;;10380434;28;20307;-65
2024/03/09 10:13:59;;;;;;;18.80;14.52;;;9.80;80.90;;;;;;10376944;28;20216;-69
2024/03/09 10:19:04;;;;;;;17.67;14.80;;;9.90;80.80;;;;;;10375679;28;20690;-66
2024/03/09 10:24:09;;;;;;;19.25;14.68;;;10.10;79.60;;;;;;10377379;28;20256;-67
2024/03/09 10:29:14;;;;;;;18.85;14.55;;;10.30;79.90;;;;;;10371845;28;20235;-66
2024/03/09 10:34:19;;;;;;;18.02;15.25;;;10.50;79.80;;;;;;10376194;28;20200;-66
2024/03/09 10:39:24;;;;;;;19.25;15.95;;;10.60;79.70;;;;;;10378350;28;21605;-66
2024/03/09 10:44:28;;;;;;;20.08;15.45;;;10.80;79.70;;;;;;10379230;28;20268;-66
2024/03/09 10:49:34;;;;;;;17.85;14.68;;;10.90;79.70;;;;;;10374999;28;20469;-67
2024/03/09 10:54:52;;;;;;;17.65;15.25;;;11.20;79.50;;;;;;10377826;28;20285;-67
2024/03/09 10:59:58;;;;;;;19.23;15.23;;;11.40;79.40;;;;;;10377295;28;20216;-67
2024/03/09 11:05:05;;;;;;;18.88;15.20;;;11.60;79.40;;;;;;10385269;28;20207;-67
2024/03/09 11:10:09;;;;;;;20.33;16.75;;;11.90;79.70;;;;;;10387288;28;20232;-67
2024/03/09 11:15:14;;;;;;;21.45;16.08;;;12.10;79.60;;;;;;10386519;28;20270;-66
2024/03/09 11:20:23;;;;;;;17.92;14.80;;;12.50;79.60;;;;;;10386589;28;20308;-68
2024/03/09 11:25:45;;;;;;;20.60;16.73;;;12.70;79.40;;;;;;10387523;28;20212;-67
2024/03/09 11:31:10;;;;;;;18.85;16.08;;;13.00;79.40;;;;;;10388470;28;20236;-68
2024/03/09 11:36:51;;;;;;;18.55;16.02;;;13.20;79.30;;;;;;10391643;28;20208;-67
2024/03/09 11:41:57;;;;;;;21.45;16.08;;;13.40;79.60;;;;;;10302262;28;20574;-69
2024/03/09 11:47:03;;;;;;;17.40;14.82;;;13.50;79.20;;;;;;10369836;28;20296;-66
2024/03/09 11:52:11;;;;;;;17.25;13.75;;;13.70;78.80;;;;;;10387398;28;21641;-67
2024/03/09 11:57:15;;;;;;;15.63;13.20;;;13.90;79.00;;;;;;10388427;28;20282;-67
2024/03/09 12:02:23;;;;;;;15.70;12.70;;;14.10;78.60;;;;;;10385360;28;20372;-66
2024/03/09 12:07:28;;;;;;;13.05;11.32;;;14.30;78.50;;;;;;10385155;28;21637;-67
2024/03/09 12:12:37;;;;;;;13.50;12.10;;;14.60;78.60;;;;;;10383597;28;20315;-66
2024/03/09 12:17:42;;;;;;;15.73;11.93;;;14.80;78.90;;;;;;10385296;28;20367;-66
2024/03/09 12:22:49;;;;;;;15.00;12.15;;;15.10;78.10;;;;;;10383342;28;20219;-66
2024/03/09 12:27:52;;;;;;;13.43;11.82;;;15.30;77.60;;;;;;10381364;28;20256;-66
2024/03/09 12:32:56;;;;;;;15.00;12.13;;;15.60;77.50;;;;;;10382403;28;20300;-66
2024/03/09 12:38:11;;;;;;;15.30;13.55;;;15.80;77.60;;;;;;10381846;28;20222;-67
2024/03/09 12:43:16;;;;;;;15.07;12.77;;;16.10;77.70;;;;;;10381069;28;20322;-66
2024/03/09 12:48:22;;;;;;;17.63;13.70;;;16.40;76.90;;;;;;10384787;28;20215;-65
2024/03/09 12:53:29;;;;;;;17.67;14.32;;;16.70;77.30;;;;;;10386060;28;20479;-64
2024/03/09 12:58:33;;;;;;;16.33;13.48;;;16.90;77.10;;;;;;10383012;28;20628;-65
2024/03/09 13:03:36;;;;;;;14.93;13.32;;;17.20;76.80;;;;;;10384779;28;20199;-66
2024/03/09 13:08:43;;;;;;;15.30;13.52;;;17.40;75.90;;;;;;10384847;28;20232;-66
2024/03/09 13:13:47;;;;;;;16.63;14.48;;;17.50;74.80;;;;;;10379657;28;20211;-65
2024/03/09 13:18:52;;;;;;;16.83;14.73;;;17.70;75.20;;;;;;10383332;28;20228;-65
2024/03/09 13:23:58;;;;;;;15.38;13.77;;;17.80;74.70;;;;;;10405317;28;20292;-66
2024/03/09 13:29:02;;;;;;;16.35;13.52;;;17.90;75.20;;;;;;10422178;28;20557;-64
2024/03/09 13:34:12;;;;;;;14.05;12.50;;;18.10;74.70;;;;;;10425867;28;20672;-65
2024/03/09 13:39:18;;;;;;;14.98;13.32;;;18.10;74.30;;;;;;10425401;28;20402;-64
2024/03/09 13:44:23;;;;;;;17.27;15.55;;;18.30;74.40;;;;;;10416101;28;20765;-65
2024/03/09 13:49:28;;;;;;;15.52;13.35;;;18.30;74.20;;;;;;10425307;28;20337;-65
2024/03/09 13:54:33;;;;;;;14.20;12.70;;;18.20;74.00;;;;;;10419946;28;20303;-66
2024/03/09 13:59:37;;;;;;;15.88;13.15;;;17.90;72.70;;;;;;10397212;28;20261;-65
2024/03/09 14:04:41;;;;;;;13.20;11.80;;;17.70;73.60;;;;;;10401676;28;20265;-66
2024/03/09 14:09:48;;;;;;;14.57;13.13;;;17.50;72.80;;;;;;10404514;28;20245;-64
2024/03/09 14:14:55;;;;;;;16.00;14.30;;;17.30;73.00;;;;;;10405567;28;20207;-65
2024/03/09 14:20:03;;;;;;;14.77;12.82;;;17.40;73.40;;;;;;10408467;28;21431;-65
2024/03/09 14:25:14;;;;;;;16.35;13.55;;;17.50;72.60;;;;;;10410054;28;20392;-66
2024/03/09 14:30:24;;;;;;;17.33;13.60;;;17.50;72.00;;;;;;10414620;28;20381;-65
2024/03/09 14:35:32;;;;;;;17.02;13.50;;;17.60;71.50;;;;;;10409861;28;20300;-67
2024/03/09 14:40:37;;;;;;;15.68;13.27;;;17.50;71.10;;;;;;10416187;28;20288;-65
2024/03/09 14:45:41;;;;;;;15.82;12.23;;;17.30;71.20;;;;;;10410736;28;20207;-64
2024/03/09 14:50:45;;;;;;;14.48;12.02;;;17.10;70.30;;;;;;10402778;28;20280;-65
2024/03/09 14:55:51;;;;;;;14.13;12.10;;;16.90;69.00;;;;;;10389041;28;20230;-65
2024/03/09 15:00:55;;;;;;;13.55;12.05;;;16.70;71.00;;;;;;10388381;28;20235;-65
2024/03/09 15:05:59;;;;;;;15.90;13.80;;;16.50;71.40;;;;;;10388435;28;20208;-65
2024/03/09 15:11:14;;;;;;;15.70;13.68;;;16.30;72.10;;;;;;10388748;28;20974;-65
2024/03/09 15:16:22;;;;;;;18.75;14.18;;;16.20;72.10;;;;;;10386251;28;20203;-65
2024/03/09 15:21:26;;;;;;;15.55;13.30;;;16.00;72.10;;;;;;10379143;28;20280;-65
2024/03/09 15:26:34;;;;;;;16.48;13.80;;;16.00;72.40;;;;;;10378241;28;20260;-65
2024/03/09 15:31:38;;;;;;;16.33;13.57;;;15.90;72.20;;;;;;10386312;28;20221;-64
2024/03/09 15:36:42;;;;;;;15.95;14.25;;;15.90;72.30;;;;;;10385683;28;20208;-65
2024/03/09 15:41:47;;;;;;;15.82;14.15;;;15.90;71.70;;;;;;10388770;28;20231;-65
2024/03/09 15:46:52;;;;;;;15.75;14.07;;;15.90;72.10;;;;;;10387683;28;20794;-65
2024/03/09 15:51:55;;;;;;;15.32;13.73;;;15.80;71.70;;;;;;10386524;28;20227;-66
2024/03/09 15:57:06;;;;;;;15.90;13.93;;;15.70;72.00;;;;;;10385811;28;20212;-66
2024/03/09 16:02:10;;;;;;;15.65;14.05;;;15.60;72.10;;;;;;10387289;28;21060;-66
2024/03/09 16:07:13;;;;;;;18.00;14.13;;;15.50;72.40;;;;;;10388018;28;20212;-66
2024/03/09 16:12:18;;;;;;;16.05;14.23;;;15.40;72.10;;;;;;10383856;28;21110;-68
2024/03/09 16:17:22;;;;;;;16.65;14.85;;;15.30;72.20;;;;;;10386056;28;20755;-67
2024/03/09 16:22:26;;;;;;;17.77;15.63;;;15.20;72.20;;;;;;10377353;28;20699;-67
2024/03/09 16:27:31;;;;;;;18.52;15.23;;;15.10;72.40;;;;;;10387539;28;20641;-66
2024/03/09 16:32:34;;;;;;;19.92;17.13;;;14.90;71.80;;;;;;10385339;28;20223;-66
2024/03/09 16:37:38;;;;;;;20.65;16.73;;;14.80;72.40;;;;;;10385612;28;20212;-66
2024/03/09 16:42:44;;;;;;;23.35;20.05;;;14.70;72.30;;;;;;10384562;28;20204;-66
2024/03/09 16:47:47;;;;;;;30.17;25.10;;;14.60;72.20;;;;;;10385626;28;20257;-66
2024/03/09 16:52:54;;;;;;;22.20;19.80;;;14.60;72.60;;;;;;10385258;28;21037;-66
2024/03/09 16:58:00;;;;;;;19.27;16.40;;;14.40;72.30;;;;;;10385719;28;20753;-66
2024/03/09 17:03:06;;;;;;;20.05;16.35;;;14.30;72.50;;;;;;10379872;28;20294;-65
2024/03/09 17:08:10;;;;;;;20.27;17.20;;;14.20;72.40;;;;;;10378381;28;20272;-64
2024/03/09 17:13:16;;;;;;;21.58;17.30;;;14.00;72.60;;;;;;10380874;28;20203;-65
2024/03/09 17:18:20;;;;;;;19.60;16.35;;;13.90;72.30;;;;;;10379887;28;20219;-65
2024/03/09 17:23:27;;;;;;;18.45;16.17;;;13.80;72.40;;;;;;10380331;28;20290;-65
2024/03/09 17:28:34;;;;;;;19.42;16.75;;;13.60;72.00;;;;;;10381232;28;20228;-64
2024/03/09 17:33:38;;;;;;;21.00;15.93;;;13.50;72.40;;;;;;10383192;28;20237;-64
2024/03/09 17:38:42;;;;;;;16.88;14.70;;;13.40;72.50;;;;;;10381029;28;20254;-65
2024/03/09 17:43:47;;;;;;;17.15;14.50;;;13.30;72.30;;;;;;10380340;28;20208;-66
2024/03/09 17:48:51;;;;;;;18.23;15.20;;;13.20;73.20;;;;;;10379744;28;20280;-67
2024/03/09 17:53:55;;;;;;;17.95;14.85;;;13.10;72.40;;;;;;10379344;28;20207;-64
2024/03/09 17:59:00;;;;;;;19.90;15.50;;;13.00;72.40;;;;;;10376608;28;20683;-66
2024/03/09 18:04:05;;;;;;;17.85;15.65;;;12.90;72.10;;;;;;10376992;28;20818;-66
2024/03/09 18:09:08;;;;;;;17.70;15.02;;;12.80;72.20;;;;;;10375326;28;20280;-66
2024/03/09 18:14:14;;;;;;;19.92;15.50;;;12.80;72.00;;;;;;10379622;28;20201;-67
2024/03/09 18:19:20;;;;;;;20.50;16.27;;;12.70;72.00;;;;;;10379733;28;20308;-67
2024/03/09 18:24:24;;;;;;;18.23;15.63;;;12.70;71.60;;;;;;10379879;28;20231;-67
2024/03/09 18:29:29;;;;;;;20.77;16.10;;;12.60;72.00;;;;;;10377485;28;20223;-66
2024/03/09 18:34:36;;;;;;;18.98;15.88;;;12.50;71.80;;;;;;10378478;28;20284;-66
2024/03/09 18:39:40;;;;;;;18.65;15.25;;;12.50;72.10;;;;;;10379765;28;20231;-66
2024/03/09 18:44:45;;;;;;;18.83;15.70;;;12.40;72.00;;;;;;10377640;28;20207;-66
2024/03/09 18:49:49;;;;;;;19.52;15.65;;;12.40;72.10;;;;;;10377481;28;20799;-65
2024/03/09 18:54:55;;;;;;;17.80;14.57;;;12.40;72.00;;;;;;10376639;28;20268;-65
2024/03/09 19:00:01;;;;;;;19.08;14.70;;;12.30;72.00;;;;;;10378617;28;20231;-65
2024/03/09 19:05:08;;;;;;;17.15;14.57;;;12.20;72.00;;;;;;10378441;28;20224;-65
2024/03/09 19:10:13;;;;;;;19.73;15.32;;;12.20;72.00;;;;;;10377546;28;20223;-66
2024/03/09 19:15:22;;;;;;;19.17;15.93;;;12.10;72.00;;;;;;10375961;28;20268;-64
2024/03/09 19:20:27;;;;;;;18.10;15.38;;;12.10;72.20;;;;;;10376645;28;21243;-66
2024/03/09 19:25:31;;;;;;;20.02;16.40;;;12.00;72.10;;;;;;10379697;28;20208;-69
2024/03/09 19:30:38;;;;;;;18.65;15.10;;;12.00;72.30;;;;;;10386700;28;20224;-69
2024/03/09 19:35:42;;;;;;;20.00;16.02;;;11.90;72.20;;;;;;10384451;28;20260;-69
2024/03/09 19:40:46;;;;;;;19.73;16.25;;;11.80;72.10;;;;;;10386082;28;20295;-69
2024/03/09 19:45:52;;;;;;;19.00;15.95;;;11.80;72.30;;;;;;10384884;28;20542;-69
2024/03/09 19:50:57;;;;;;;21.55;17.48;;;11.70;72.20;;;;;;10386301;28;20228;-68
2024/03/09 19:56:03;;;;;;;21.40;16.88;;;11.60;72.30;;;;;;10386610;28;20209;-68
2024/03/09 20:01:13;;;;;;;20.27;17.08;;;11.60;72.40;;;;;;10387145;28;20246;-69
2024/03/09 20:06:18;;;;;;;21.58;18.15;;;11.50;72.40;;;;;;10386035;28;20265;-68
2024/03/09 20:11:21;;;;;;;23.83;18.65;;;11.40;72.30;;;;;;10386322;28;20224;-71
2024/03/09 20:16:28;;;;;;;23.60;17.40;;;11.40;72.40;;;;;;10385666;28;20705;-70
2024/03/09 20:21:32;;;;;;;19.90;16.80;;;11.30;72.30;;;;;;10385894;28;20236;-70
2024/03/09 20:26:35;;;;;;;21.45;16.45;;;11.30;72.40;;;;;;10386061;28;20841;-69
2024/03/09 20:31:41;;;;;;;23.00;17.00;;;11.20;72.30;;;;;;10385599;28;21574;-69
2024/03/09 20:36:45;;;;;;;19.83;17.02;;;11.20;72.40;;;;;;10384175;28;20208;-69
2024/03/09 20:41:50;;;;;;;20.02;17.42;;;11.20;72.50;;;;;;10379201;28;20232;-68
2024/03/09 20:46:55;;;;;;;19.45;16.65;;;11.20;72.50;;;;;;10384666;28;21588;-69
2024/03/09 20:51:59;;;;;;;21.40;17.20;;;11.10;72.40;;;;;;10387430;28;20233;-68
2024/03/09 20:57:03;;;;;;;22.98;16.77;;;11.10;72.40;;;;;;10380332;28;21547;-69
2024/03/09 21:02:13;;;;;;;23.73;18.02;;;11.10;72.40;;;;;;10381116;28;20231;-69
2024/03/09 21:07:17;;;;;;;22.17;17.85;;;11.10;72.50;;;;;;10385920;28;20291;-69
2024/03/09 21:12:22;;;;;;;20.15;16.90;;;11.00;72.40;;;;;;10385450;28;20246;-69
2024/03/09 21:17:27;;;;;;;18.65;15.43;;;11.00;72.40;;;;;;10384260;28;20206;-69
2024/03/09 21:22:31;;;;;;;19.02;16.30;;;11.00;72.50;;;;;;10382976;28;20590;-69
2024/03/09 21:27:37;;;;;;;20.73;16.38;;;11.00;72.60;;;;;;10382443;28;20702;-69
2024/03/09 21:32:44;;;;;;;22.00;16.02;;;11.00;72.50;;;;;;10381461;28;20231;-69
2024/03/09 21:37:51;;;;;;;19.42;15.63;;;10.90;72.40;;;;;;10374746;28;20284;-68
2024/03/09 21:42:55;;;;;;;20.70;16.55;;;10.90;72.40;;;;;;10382012;28;21613;-69
2024/03/09 21:48:01;;;;;;;21.02;16.38;;;10.90;72.40;;;;;;10375950;28;20200;-69
2024/03/09 21:53:05;;;;;;;20.15;16.73;;;10.90;72.50;;;;;;10379943;28;20261;-69
2024/03/09 21:58:09;;;;;;;21.20;16.70;;;10.90;72.50;;;;;;10381439;28;20236;-69
2024/03/09 22:03:14;;;;;;;21.25;16.20;;;10.80;72.40;;;;;;10382091;28;20225;-68
2024/03/09 22:08:18;;;;;;;19.42;16.13;;;10.80;72.40;;;;;;10380108;28;20264;-71
2024/03/09 22:13:23;;;;;;;18.00;15.85;;;10.80;72.40;;;;;;10377602;28;20234;-70
2024/03/09 22:18:28;;;;;;;19.88;16.67;;;10.70;72.30;;;;;;10377765;28;20227;-69
2024/03/09 22:23:32;;;;;;;19.27;15.40;;;10.70;72.40;;;;;;10375772;28;20251;-69
2024/03/09 22:28:36;;;;;;;19.08;15.65;;;10.70;72.40;;;;;;10376513;28;21189;-68
2024/03/09 22:33:41;;;;;;;18.67;16.25;;;10.70;72.40;;;;;;10379315;28;20213;-71
2024/03/09 22:38:44;;;;;;;18.90;15.57;;;10.70;72.40;;;;;;10379297;28;20272;-68
2024/03/09 22:43:49;;;;;;;20.75;15.85;;;10.70;72.30;;;;;;10377475;28;20308;-68
2024/03/09 22:48:54;;;;;;;18.10;14.38;;;10.60;72.20;;;;;;10372356;28;20295;-69
2024/03/09 22:53:57;;;;;;;17.98;14.68;;;10.60;72.20;;;;;;10376316;28;20272;-69
2024/03/09 22:59:03;;;;;;;19.98;15.10;;;10.60;72.10;;;;;;10382795;28;20316;-69
2024/03/09 23:04:08;;;;;;;18.83;14.77;;;10.60;72.10;;;;;;10387483;28;20223;-69
2024/03/09 23:09:12;;;;;;;19.95;15.20;;;10.60;72.00;;;;;;10387170;28;20220;-69
2024/03/09 23:14:18;;;;;;;17.98;14.77;;;10.60;72.00;;;;;;10388941;28;20199;-70
2024/03/09 23:19:23;;;;;;;16.20;14.35;;;10.60;71.90;;;;;;10383897;28;20567;-71
2024/03/09 23:24:27;;;;;;;17.48;14.80;;;10.60;71.90;;;;;;10384583;28;20797;-70
2024/03/09 23:29:32;;;;;;;19.80;14.85;;;10.50;71.80;;;;;;10383162;28;20229;-70
2024/03/09 23:34:37;;;;;;;18.15;14.75;;;10.50;71.80;;;;;;10384391;28;20255;-68
2024/03/09 23:39:41;;;;;;;17.02;14.13;;;10.50;71.80;;;;;;10384481;28;20227;-69
2024/03/09 23:44:44;;;;;;;18.20;14.77;;;10.50;71.90;;;;;;10384143;28;20232;-68
2024/03/09 23:49:49;;;;;;;15.75;13.32;;;10.40;71.80;;;;;;10381695;28;20258;-68
2024/03/09 23:54:54;;;;;;;20.58;15.13;;;10.40;71.90;;;;;;10382957;28;21662;-68
2024/03/09 23:59:57;;;;;;;19.08;15.05;;;10.40;71.90;;;;;;10383077;28;20228;-68
